createdAt,value
2022-10-31T00:01:24.503Z,14.00
2022-10-31T00:03:51.400Z,14.00
2022-10-31T00:06:21.043Z,14.10
2022-10-31T00:08:52.647Z,14.00
2022-10-31T00:11:19.645Z,14.10
2022-10-31T00:13:47.630Z,14.10
2022-10-31T00:16:19.599Z,14.10
2022-10-31T00:18:50.732Z,13.90
2022-10-31T00:21:17.969Z,13.80
2022-10-31T00:23:46.238Z,13.90
2022-10-31T00:26:13.585Z,13.80
2022-10-31T00:28:40.796Z,13.80
2022-10-31T00:31:10.101Z,13.80
2022-10-31T00:33:39.359Z,13.70
2022-10-31T00:36:08.003Z,13.70
2022-10-31T00:38:35.014Z,13.50
2022-10-31T00:41:01.939Z,13.50
2022-10-31T00:43:29.444Z,13.60
2022-10-31T00:45:56.334Z,13.60
2022-10-31T00:48:25.931Z,13.50
2022-10-31T00:50:53.959Z,13.30
2022-10-31T00:53:21.036Z,13.20
2022-10-31T00:55:48.485Z,13.10
2022-10-31T01:00:56.406Z,13.00
2022-10-31T01:03:25.456Z,12.80
2022-10-31T01:06:04.036Z,12.90
2022-10-31T01:08:33.755Z,12.70
2022-10-31T01:11:16.253Z,12.70
2022-10-31T01:13:44.522Z,12.90
2022-10-31T01:16:14.223Z,12.70
2022-10-31T01:18:42.093Z,12.50
2022-10-31T01:21:23.550Z,12.30
2022-10-31T01:23:53.619Z,12.20
2022-10-31T01:26:24.148Z,12.00
2022-10-31T01:28:54.555Z,12.00
2022-10-31T01:31:24.040Z,12.10
2022-10-31T01:33:51.331Z,12.00
2022-10-31T01:36:31.547Z,11.80
2022-10-31T01:39:16.278Z,11.60
2022-10-31T01:41:47.222Z,11.60
2022-10-31T01:44:17.140Z,11.50
2022-10-31T01:46:56.116Z,11.50
2022-10-31T01:49:52.239Z,11.50
2022-10-31T01:52:22.859Z,11.60
2022-10-31T01:55:12.895Z,11.60
2022-10-31T01:57:44.409Z,11.40
2022-10-31T02:00:12.163Z,11.30
2022-10-31T02:02:42.688Z,11.60
2022-10-31T02:05:17.013Z,11.40
2022-10-31T02:07:51.576Z,11.20
2022-10-31T02:10:22.003Z,11.10
2022-10-31T02:12:49.715Z,11.00
2022-10-31T02:15:17.048Z,11.10
2022-10-31T02:17:44.158Z,11.10
2022-10-31T02:20:23.447Z,11.00
2022-10-31T02:23:09.409Z,10.80
2022-10-31T02:25:53.205Z,10.80
2022-10-31T02:28:39.645Z,10.70
2022-10-31T02:31:21.574Z,10.70
2022-10-31T02:33:56.732Z,10.60
2022-10-31T02:36:35.034Z,10.60
2022-10-31T02:39:13.735Z,10.50
2022-10-31T02:42:15.915Z,10.50
2022-10-31T02:44:52.137Z,10.50
2022-10-31T02:47:23.544Z,10.40
2022-10-31T02:50:11.849Z,10.40
2022-10-31T02:52:40.136Z,10.40
2022-10-31T02:55:27.250Z,10.40
2022-10-31T02:58:12.106Z,10.50
2022-10-31T03:01:14.941Z,10.60
2022-10-31T03:03:52.518Z,10.60
2022-10-31T03:06:30.378Z,10.90
2022-10-31T03:09:13.792Z,10.80
2022-10-31T03:12:13.875Z,10.70
2022-10-31T03:15:04.096Z,10.60
2022-10-31T03:17:46.025Z,10.60
2022-10-31T03:20:12.929Z,10.60
2022-10-31T03:22:42.488Z,10.70
2022-10-31T03:25:10.655Z,10.90
2022-10-31T03:27:40.368Z,11.00
2022-10-31T03:30:08.933Z,11.10
2022-10-31T03:32:55.389Z,11.10
2022-10-31T03:35:26.897Z,11.10
2022-10-31T03:37:55.862Z,11.00
2022-10-31T03:40:26.750Z,11.10
2022-10-31T03:42:59.196Z,11.40
2022-10-31T03:45:30.740Z,11.30
2022-10-31T03:48:00.123Z,11.20
2022-10-31T03:50:37.268Z,11.30
2022-10-31T03:53:21.612Z,11.40
2022-10-31T03:56:02.014Z,11.70
2022-10-31T03:58:34.214Z,11.80
2022-10-31T04:01:04.108Z,11.70
2022-10-31T04:03:35.019Z,11.50
2022-10-31T04:06:06.843Z,11.20
2022-10-31T04:08:44.409Z,11.00
2022-10-31T04:11:18.951Z,10.80
2022-10-31T04:13:50.490Z,10.70
2022-10-31T04:16:24.103Z,10.60
2022-10-31T04:18:53.165Z,10.50
2022-10-31T04:21:20.268Z,10.50
2022-10-31T04:23:48.830Z,10.50
2022-10-31T04:26:25.663Z,10.50
2022-10-31T04:28:52.564Z,10.50
2022-10-31T04:31:19.608Z,10.40
2022-10-31T04:33:48.825Z,10.50
2022-10-31T04:36:15.788Z,10.50
2022-10-31T04:38:43.278Z,10.30
2022-10-31T04:41:22.589Z,10.20
2022-10-31T04:44:01.338Z,10.20
2022-10-31T04:46:28.478Z,10.10
2022-10-31T04:48:57.635Z,10.00
2022-10-31T04:51:24.981Z,9.90
2022-10-31T04:53:52.512Z,9.80
2022-10-31T04:56:39.334Z,9.80
2022-10-31T04:59:12.547Z,9.80
2022-10-31T05:01:49.068Z,9.80
2022-10-31T05:04:19.332Z,9.80
2022-10-31T05:06:47.079Z,9.90
2022-10-31T05:09:14.559Z,9.90
2022-10-31T05:11:41.445Z,10.00
2022-10-31T05:14:31.416Z,9.90
2022-10-31T05:17:16.978Z,9.80
2022-10-31T05:20:02.395Z,9.80
2022-10-31T05:22:53.632Z,9.80
2022-10-31T05:25:22.407Z,9.60
2022-10-31T05:27:52.472Z,9.80
2022-10-31T05:30:23.913Z,9.90
2022-10-31T05:32:51.951Z,10.00
2022-10-31T05:35:37.158Z,10.00
2022-10-31T05:38:25.948Z,9.80
2022-10-31T05:41:06.810Z,9.60
2022-10-31T05:43:34.457Z,9.40
2022-10-31T05:46:05.352Z,9.30
2022-10-31T05:49:02.914Z,9.40
2022-10-31T05:51:48.238Z,9.60
2022-10-31T05:54:16.102Z,9.60
2022-10-31T05:56:45.457Z,9.40
2022-10-31T05:59:12.786Z,9.20
2022-10-31T06:01:40.591Z,9.10
2022-10-31T06:04:17.270Z,9.20
2022-10-31T06:06:44.369Z,9.20
2022-10-31T06:09:11.565Z,9.10
2022-10-31T06:11:38.557Z,9.10
2022-10-31T06:14:06.040Z,9.00
2022-10-31T06:16:46.043Z,9.00
2022-10-31T06:19:31.464Z,8.90
2022-10-31T06:21:59.458Z,8.90
2022-10-31T06:24:26.466Z,8.90
2022-10-31T06:26:53.390Z,8.90
2022-10-31T06:29:21.382Z,9.00
2022-10-31T06:31:59.918Z,9.20
2022-10-31T06:34:26.999Z,9.20
2022-10-31T06:36:53.881Z,9.20
2022-10-31T06:39:24.181Z,9.20
2022-10-31T06:41:51.174Z,9.30
2022-10-31T06:44:21.067Z,9.40
2022-10-31T06:46:50.809Z,9.40
2022-10-31T06:49:36.149Z,9.40
2022-10-31T06:52:09.421Z,9.40
2022-10-31T06:54:36.374Z,9.40
2022-10-31T06:57:04.173Z,9.30
2022-10-31T06:59:31.963Z,9.30
2022-10-31T07:02:12.446Z,9.30
2022-10-31T07:04:42.051Z,9.50
2022-10-31T07:07:09.406Z,9.50
2022-10-31T07:09:38.292Z,9.50
2022-10-31T07:12:06.059Z,9.60
2022-10-31T07:14:37.102Z,9.70
2022-10-31T07:17:04.108Z,9.70
2022-10-31T07:19:38.597Z,9.70
2022-10-31T07:22:05.490Z,9.80
2022-10-31T07:24:33.834Z,10.10
2022-10-31T07:27:43.233Z,10.30
2022-10-31T07:30:13.804Z,10.30
2022-10-31T07:32:42.488Z,10.30
2022-10-31T07:35:11.121Z,10.40
2022-10-31T07:37:46.729Z,10.50
2022-10-31T07:40:15.448Z,10.70
2022-10-31T07:42:49.444Z,10.90
2022-10-31T07:45:36.288Z,11.00
2022-10-31T07:48:22.412Z,11.20
2022-10-31T07:51:08.022Z,11.40
2022-10-31T07:53:53.587Z,11.50
2022-10-31T07:56:25.766Z,11.70
2022-10-31T07:58:53.555Z,11.80
2022-10-31T08:01:20.414Z,12.00
2022-10-31T08:04:03.063Z,12.30
2022-10-31T08:06:49.347Z,12.60
2022-10-31T08:09:26.350Z,12.90
2022-10-31T08:11:54.892Z,13.00
2022-10-31T08:14:23.405Z,13.10
2022-10-31T08:16:53.902Z,13.40
2022-10-31T08:19:21.255Z,13.50
2022-10-31T08:21:52.952Z,13.60
2022-10-31T08:24:19.978Z,13.70
2022-10-31T08:26:46.959Z,13.90
2022-10-31T08:29:15.574Z,14.00
2022-10-31T08:31:43.616Z,14.20
2022-10-31T08:34:28.787Z,14.30
2022-10-31T08:37:19.681Z,14.30
2022-10-31T08:39:48.955Z,14.40
2022-10-31T08:42:15.827Z,14.40
2022-10-31T08:44:42.762Z,14.40
2022-10-31T08:47:09.674Z,14.60
2022-10-31T08:49:37.645Z,14.60
2022-10-31T08:52:04.679Z,14.70
2022-10-31T08:54:36.528Z,14.70
2022-10-31T08:57:22.198Z,14.70
2022-10-31T08:59:49.105Z,14.50
2022-10-31T09:02:27.504Z,14.50
2022-10-31T09:04:59.464Z,14.50
2022-10-31T09:07:26.633Z,14.60
2022-10-31T09:09:54.813Z,14.60
2022-10-31T09:12:21.712Z,14.60
2022-10-31T09:15:07.787Z,14.50
2022-10-31T09:17:40.556Z,14.60
2022-10-31T09:20:26.607Z,14.60
2022-10-31T09:23:21.800Z,14.60
2022-10-31T09:25:51.199Z,14.70
2022-10-31T09:28:56.249Z,14.90
2022-10-31T09:31:24.298Z,15.10
2022-10-31T09:33:56.546Z,15.10
2022-10-31T09:36:39.573Z,15.30
2022-10-31T09:39:25.147Z,15.40
2022-10-31T09:42:20.295Z,15.50
2022-10-31T09:44:58.970Z,15.60
2022-10-31T09:47:50.287Z,15.90
2022-10-31T09:50:34.809Z,15.90
2022-10-31T09:53:26.494Z,16.00
2022-10-31T09:55:54.214Z,16.00
2022-10-31T09:58:26.293Z,16.00
2022-10-31T10:00:57.859Z,16.20
2022-10-31T10:03:48.156Z,16.40
2022-10-31T10:06:37.035Z,16.60
2022-10-31T10:09:32.700Z,16.50
2022-10-31T10:12:43.644Z,16.70
2022-10-31T10:15:44.214Z,16.70
2022-10-31T10:18:44.600Z,16.70
2022-10-31T10:21:25.404Z,16.60
2022-10-31T10:24:00.790Z,16.70
2022-10-31T10:26:38.848Z,16.80
2022-10-31T10:29:38.556Z,16.90
2022-10-31T10:32:14.707Z,16.80
2022-10-31T10:34:48.668Z,16.90
2022-10-31T10:37:38.513Z,17.00
2022-10-31T10:40:20.083Z,17.00
2022-10-31T10:43:24.676Z,17.10
2022-10-31T10:46:16.909Z,17.50
2022-10-31T10:48:53.417Z,18.00
2022-10-31T10:51:54.676Z,17.90
2022-10-31T10:54:41.031Z,18.00
2022-10-31T10:57:13.740Z,18.00
2022-10-31T10:59:40.732Z,18.40
2022-10-31T11:02:23.854Z,18.80
2022-10-31T11:04:57.851Z,19.40
2022-10-31T11:07:24.866Z,19.40
2022-10-31T11:09:51.751Z,19.40
2022-10-31T11:12:31.081Z,19.40
2022-10-31T11:15:08.114Z,19.20
2022-10-31T11:17:39.463Z,18.70
2022-10-31T11:20:18.058Z,18.50
2022-10-31T11:22:48.539Z,18.40
2022-10-31T11:25:26.398Z,18.40
2022-10-31T11:28:09.558Z,18.70
2022-10-31T11:30:45.586Z,18.70
2022-10-31T11:33:23.001Z,18.90
2022-10-31T11:35:53.510Z,19.00
2022-10-31T11:38:27.982Z,19.40
2022-10-31T11:41:00.807Z,20.00
2022-10-31T11:43:28.550Z,20.10
2022-10-31T11:45:55.600Z,20.20
2022-10-31T11:48:26.104Z,19.90
2022-10-31T11:50:58.354Z,19.70
2022-10-31T11:53:31.367Z,19.80
2022-10-31T11:56:11.282Z,19.70
2022-10-31T11:58:38.135Z,19.50
2022-10-31T12:01:05.154Z,19.50
2022-10-31T12:03:57.196Z,19.30
2022-10-31T12:06:31.289Z,19.30
2022-10-31T12:08:58.178Z,19.20
2022-10-31T12:11:45.372Z,19.00
2022-10-31T12:14:46.133Z,18.80
2022-10-31T12:17:26.068Z,18.70
2022-10-31T12:20:05.305Z,18.20
2022-10-31T12:22:32.096Z,18.00
2022-10-31T12:25:20.566Z,17.80
2022-10-31T12:27:54.821Z,17.70
2022-10-31T12:30:29.561Z,17.80
2022-10-31T12:33:25.287Z,17.80
2022-10-31T12:36:12.505Z,17.90
2022-10-31T12:38:49.490Z,18.00
2022-10-31T12:41:27.994Z,18.00
2022-10-31T12:43:58.593Z,18.20
2022-10-31T12:46:28.207Z,18.30
2022-10-31T12:49:16.646Z,18.40
2022-10-31T12:51:59.561Z,18.40
2022-10-31T12:55:05.692Z,18.40
2022-10-31T12:57:40.178Z,18.40
2022-10-31T13:00:16.753Z,18.20
2022-10-31T13:03:18.931Z,18.00
2022-10-31T13:05:50.556Z,17.80
2022-10-31T13:08:28.416Z,17.70
2022-10-31T13:11:16.773Z,17.40
2022-10-31T13:13:59.419Z,17.20
2022-10-31T13:16:31.692Z,17.30
2022-10-31T13:19:15.668Z,17.50
2022-10-31T13:22:07.560Z,17.40
2022-10-31T13:25:12.209Z,17.80
2022-10-31T13:27:57.205Z,17.60
2022-10-31T13:30:27.770Z,17.50
2022-10-31T13:33:25.743Z,17.50
2022-10-31T13:36:18.446Z,17.60
2022-10-31T13:39:26.556Z,17.80
2022-10-31T13:42:02.890Z,17.60
2022-10-31T13:44:35.824Z,17.50
2022-10-31T13:47:21.070Z,17.40
2022-10-31T13:49:47.967Z,17.40
2022-10-31T13:52:17.836Z,17.40
2022-10-31T13:54:52.674Z,17.50
2022-10-31T13:57:36.068Z,17.50
2022-10-31T14:00:15.386Z,17.60
2022-10-31T14:02:49.417Z,17.80
2022-10-31T14:05:32.076Z,17.70
2022-10-31T14:08:02.434Z,17.50
2022-10-31T14:10:37.055Z,17.60
2022-10-31T14:13:21.448Z,17.60
2022-10-31T14:15:59.270Z,17.50
2022-10-31T14:18:32.528Z,17.60
2022-10-31T14:20:59.606Z,17.60
2022-10-31T14:23:29.655Z,17.40
2022-10-31T14:26:20.250Z,17.30
2022-10-31T14:28:49.343Z,17.20
2022-10-31T14:31:39.640Z,17.20
2022-10-31T14:34:24.945Z,17.10
2022-10-31T14:37:09.049Z,17.00
2022-10-31T14:39:57.141Z,16.90
2022-10-31T14:42:45.612Z,16.70
2022-10-31T14:45:50.732Z,16.70
2022-10-31T14:48:20.301Z,16.50
2022-10-31T14:50:52.382Z,16.50
2022-10-31T14:53:27.542Z,16.40
2022-10-31T14:55:56.589Z,16.30
2022-10-31T14:58:41.655Z,16.30
2022-10-31T15:01:09.164Z,16.20
2022-10-31T15:03:44.597Z,16.20
2022-10-31T15:06:23.093Z,16.10
2022-10-31T15:08:55.782Z,16.10
2022-10-31T15:11:27.703Z,16.00
2022-10-31T15:13:57.774Z,16.00
2022-10-31T15:16:34.430Z,16.00
2022-10-31T15:19:05.851Z,16.00
2022-10-31T15:21:33.768Z,16.00
2022-10-31T15:24:02.528Z,16.00
2022-10-31T15:26:43.938Z,16.00
2022-10-31T15:29:17.023Z,16.00
2022-10-31T15:32:23.906Z,16.00
2022-10-31T15:34:52.670Z,16.00
2022-10-31T15:37:23.244Z,16.00
2022-10-31T15:39:50.807Z,16.10
2022-10-31T15:42:26.539Z,16.00
2022-10-31T15:44:58.432Z,16.00
2022-10-31T15:47:25.523Z,16.00
2022-10-31T15:49:57.406Z,16.00
2022-10-31T15:52:36.534Z,16.00
2022-10-31T15:55:05.858Z,16.00
2022-10-31T15:57:33.801Z,16.00
2022-10-31T16:00:00.815Z,15.90
2022-10-31T16:02:28.673Z,15.90
2022-10-31T16:04:58.895Z,15.90
2022-10-31T16:07:26.487Z,15.80
2022-10-31T16:09:59.413Z,15.80
2022-10-31T16:12:45.777Z,15.80
2022-10-31T16:15:16.451Z,15.70
2022-10-31T16:17:46.433Z,15.70
2022-10-31T16:20:28.881Z,15.70
2022-10-31T16:22:57.975Z,15.60
2022-10-31T16:25:34.794Z,15.70
2022-10-31T16:30:48.500Z,15.60
2022-10-31T16:33:36.690Z,15.70
2022-10-31T16:36:35.421Z,15.70
2022-10-31T16:39:03.143Z,15.80
2022-10-31T16:41:30.059Z,15.80
2022-10-31T16:43:57.241Z,15.90
2022-10-31T16:46:27.202Z,15.90
2022-10-31T16:48:54.736Z,15.90
2022-10-31T16:51:22.186Z,15.90
2022-10-31T16:53:52.436Z,15.80
2022-10-31T16:56:27.133Z,15.90
2022-10-31T16:58:54.149Z,15.80
2022-10-31T17:01:21.183Z,15.90
2022-10-31T17:03:48.214Z,15.90
2022-10-31T17:06:15.436Z,15.90
2022-10-31T17:08:42.739Z,15.90
2022-10-31T17:11:20.267Z,15.90
2022-10-31T17:13:47.159Z,15.90
2022-10-31T17:16:17.231Z,15.80
2022-10-31T17:18:46.076Z,15.70
2022-10-31T17:21:21.336Z,15.70
2022-10-31T17:23:48.411Z,15.60
2022-10-31T17:26:15.368Z,15.60
2022-10-31T17:28:42.328Z,15.60
2022-10-31T17:31:21.692Z,15.60
2022-10-31T17:33:48.808Z,15.60
2022-10-31T17:36:15.773Z,15.50
2022-10-31T17:38:42.645Z,15.40
2022-10-31T17:41:11.261Z,15.30
2022-10-31T17:43:38.912Z,15.20
2022-10-31T17:46:06.818Z,15.20
2022-10-31T17:48:36.093Z,15.10
2022-10-31T17:51:04.796Z,15.10
2022-10-31T17:53:33.500Z,15.20
2022-10-31T17:56:08.283Z,15.10
2022-10-31T17:58:36.512Z,15.20
2022-10-31T18:01:15.916Z,15.10
2022-10-31T18:03:43.067Z,15.00
2022-10-31T18:06:11.601Z,15.00
2022-10-31T18:08:40.655Z,14.90
2022-10-31T18:11:27.117Z,15.10
2022-10-31T18:13:58.637Z,15.20
2022-10-31T18:16:26.291Z,15.30
2022-10-31T18:18:56.089Z,15.40
2022-10-31T18:21:22.949Z,15.40
2022-10-31T18:23:55.179Z,15.40
2022-10-31T18:26:24.060Z,15.40
2022-10-31T18:28:51.090Z,15.60
2022-10-31T18:31:18.783Z,15.50
2022-10-31T18:33:46.396Z,15.50
2022-10-31T18:36:13.818Z,15.60
2022-10-31T18:38:44.902Z,15.60
2022-10-31T18:41:13.020Z,15.60
2022-10-31T18:43:40.201Z,15.60
2022-10-31T18:46:13.801Z,15.70
2022-10-31T18:48:42.542Z,15.70
2022-10-31T18:51:14.347Z,15.80
2022-10-31T18:53:41.276Z,15.70
2022-10-31T18:56:10.623Z,15.60
2022-10-31T18:58:37.573Z,15.70
2022-10-31T19:01:09.637Z,15.60
2022-10-31T19:03:37.561Z,15.70
2022-10-31T19:06:04.979Z,15.60
2022-10-31T19:08:31.968Z,15.60
2022-10-31T19:11:07.162Z,15.50
2022-10-31T19:13:35.304Z,15.30
2022-10-31T19:16:14.033Z,15.10
2022-10-31T19:18:42.189Z,14.80
2022-10-31T19:21:18.055Z,14.60
2022-10-31T19:23:45.840Z,14.40
2022-10-31T19:26:13.458Z,14.30
2022-10-31T19:28:41.519Z,14.10
2022-10-31T19:31:09.630Z,13.90
2022-10-31T19:33:37.225Z,13.80
2022-10-31T19:36:08.313Z,13.60
2022-10-31T19:38:36.781Z,13.40
2022-10-31T19:41:09.215Z,13.30
2022-10-31T19:43:36.392Z,13.20
2022-10-31T19:46:06.276Z,13.20
2022-10-31T19:48:39.338Z,13.20
2022-10-31T19:51:11.944Z,13.30
2022-10-31T19:53:39.782Z,13.30
2022-10-31T19:56:21.486Z,13.20
2022-10-31T19:58:48.542Z,13.20
2022-10-31T20:01:18.322Z,13.20
2022-10-31T20:03:46.435Z,13.20
2022-10-31T20:06:19.143Z,13.20
2022-10-31T20:08:46.116Z,13.20
2022-10-31T20:11:13.038Z,13.10
2022-10-31T20:13:39.904Z,13.00
2022-10-31T20:16:09.608Z,13.10
2022-10-31T20:18:37.438Z,13.10
2022-10-31T20:21:13.527Z,13.20
2022-10-31T20:23:40.986Z,13.20
2022-10-31T20:26:14.078Z,13.10
2022-10-31T20:28:43.329Z,13.10
2022-10-31T20:31:16.933Z,13.10
2022-10-31T20:33:44.209Z,13.20
2022-10-31T20:36:11.810Z,13.20
2022-10-31T20:38:39.827Z,13.10
2022-10-31T20:41:10.267Z,13.20
2022-10-31T20:43:38.843Z,13.30
2022-10-31T20:46:13.517Z,13.40
2022-10-31T20:48:40.533Z,13.40
2022-10-31T20:53:42.988Z,13.30
2022-10-31T20:56:15.414Z,13.30
2022-10-31T20:58:43.932Z,13.20
2022-10-31T21:01:28.232Z,13.10
2022-10-31T21:03:55.344Z,13.10
2022-10-31T21:06:23.410Z,13.00
2022-10-31T21:08:51.668Z,12.90
2022-10-31T21:11:21.415Z,12.80
2022-10-31T21:13:48.976Z,12.70
2022-10-31T21:16:21.170Z,12.60
2022-10-31T21:18:49.479Z,12.60
2022-10-31T21:21:23.335Z,12.60
2022-10-31T21:24:04.739Z,12.50
2022-10-31T21:26:35.449Z,12.60
2022-10-31T21:29:03.818Z,12.70
2022-10-31T21:31:31.422Z,12.80
2022-10-31T21:33:58.522Z,12.90
2022-10-31T21:36:26.324Z,13.10
2022-10-31T21:38:54.989Z,13.40
2022-10-31T21:41:23.076Z,13.50
2022-10-31T21:43:51.745Z,13.80
2022-10-31T21:46:21.299Z,13.90
2022-10-31T21:48:49.163Z,14.00
2022-10-31T21:51:21.738Z,14.10
2022-10-31T21:54:07.788Z,14.30
2022-10-31T21:56:36.057Z,14.50
2022-10-31T21:59:04.852Z,14.50
2022-10-31T22:01:32.430Z,14.50
2022-10-31T22:03:59.835Z,14.60
2022-10-31T22:06:30.095Z,14.70
2022-10-31T22:09:00.009Z,14.80
2022-10-31T22:11:28.497Z,14.90
2022-10-31T22:13:55.857Z,14.80
2022-10-31T22:16:24.177Z,14.90
2022-10-31T22:18:56.434Z,14.90
2022-10-31T22:21:25.888Z,14.80
2022-10-31T22:24:01.744Z,14.90
2022-10-31T22:26:32.782Z,14.90
2022-10-31T22:29:02.271Z,14.80
2022-10-31T22:31:30.692Z,14.70
2022-10-31T22:33:57.971Z,14.70
2022-10-31T22:36:28.022Z,14.70
2022-10-31T22:38:55.049Z,14.60
2022-10-31T22:41:24.981Z,14.50
2022-10-31T22:43:51.833Z,14.50
2022-10-31T22:46:27.223Z,14.40
2022-10-31T22:48:56.774Z,14.40
2022-10-31T22:51:32.534Z,14.30
2022-10-31T22:54:00.145Z,14.20
2022-10-31T22:56:33.017Z,14.20
2022-10-31T22:59:02.979Z,14.10
2022-10-31T23:01:32.536Z,14.00
2022-10-31T23:04:00.715Z,13.90
2022-10-31T23:06:32.672Z,13.80
2022-10-31T23:09:01.714Z,13.80
2022-10-31T23:11:32.412Z,13.70
2022-10-31T23:14:09.745Z,13.70
2022-10-31T23:16:40.975Z,13.70
2022-10-31T23:19:09.252Z,13.70
2022-10-31T23:21:55.023Z,13.70
2022-10-31T23:24:28.637Z,13.90
2022-10-31T23:27:09.311Z,14.00
2022-10-31T23:29:49.493Z,13.90
2022-10-31T23:32:25.180Z,13.80
2022-10-31T23:34:57.514Z,13.90
2022-10-31T23:37:26.815Z,14.00
2022-10-31T23:39:53.842Z,14.10
2022-10-31T23:42:21.334Z,14.20
2022-10-31T23:44:48.408Z,14.00
2022-10-31T23:47:16.053Z,14.00
2022-10-31T23:49:43.424Z,14.00
2022-10-31T23:52:11.469Z,13.90
2022-10-31T23:54:38.708Z,14.00
2022-10-31T23:57:05.837Z,13.90
2022-10-31T23:59:33.033Z,14.00
